sensor_id;sensor_type;location;lat;lon;timestamp;P1;durP1;ratioP1;P2;durP2;ratioP2
10811;SDS011;5458;51.496;7.334;2023-02-11T00:01:24;42.95;;;25.65;;
10811;SDS011;5458;51.496;7.334;2023-02-11T00:03:52;36.35;;;23.70;;
10811;SDS011;5458;51.496;7.334;2023-02-11T00:06:19;36.42;;;26.30;;
10811;SDS011;5458;51.496;7.334;2023-02-11T00:08:45;34.38;;;23.35;;
10811;SDS011;5458;51.496;7.334;2023-02-11T00:11:11;36.13;;;24.63;;
10811;SDS011;5458;51.496;7.334;2023-02-11T00:13:39;38.17;;;25.42;;
10811;SDS011;5458;51.496;7.334;2023-02-11T00:16:09;43.30;;;26.80;;
10811;SDS011;5458;51.496;7.334;2023-02-11T00:18:37;35.20;;;24.85;;
10811;SDS011;5458;51.496;7.334;2023-02-11T00:21:07;40.22;;;25.00;;
10811;SDS011;5458;51.496;7.334;2023-02-11T00:23:34;35.65;;;25.10;;
10811;SDS011;5458;51.496;7.334;2023-02-11T00:26:00;40.05;;;24.95;;
10811;SDS011;5458;51.496;7.334;2023-02-11T00:28:26;39.97;;;25.42;;
10811;SDS011;5458;51.496;7.334;2023-02-11T00:30:55;40.03;;;24.40;;
10811;SDS011;5458;51.496;7.334;2023-02-11T00:33:21;35.20;;;23.88;;
10811;SDS011;5458;51.496;7.334;2023-02-11T00:35:47;38.10;;;23.92;;
10811;SDS011;5458;51.496;7.334;2023-02-11T00:38:13;35.88;;;23.80;;
10811;SDS011;5458;51.496;7.334;2023-02-11T00:40:39;33.30;;;24.15;;
10811;SDS011;5458;51.496;7.334;2023-02-11T00:43:05;36.40;;;24.42;;
10811;SDS011;5458;51.496;7.334;2023-02-11T00:45:30;33.90;;;23.25;;
10811;SDS011;5458;51.496;7.334;2023-02-11T00:47:56;35.00;;;24.45;;
10811;SDS011;5458;51.496;7.334;2023-02-11T00:50:22;34.80;;;24.63;;
10811;SDS011;5458;51.496;7.334;2023-02-11T00:52:48;37.10;;;24.67;;
10811;SDS011;5458;51.496;7.334;2023-02-11T00:55:14;35.15;;;23.50;;
10811;SDS011;5458;51.496;7.334;2023-02-11T00:57:40;38.00;;;24.75;;
10811;SDS011;5458;51.496;7.334;2023-02-11T01:00:06;34.17;;;24.50;;
10811;SDS011;5458;51.496;7.334;2023-02-11T01:02:33;37.00;;;24.63;;
10811;SDS011;5458;51.496;7.334;2023-02-11T01:04:59;34.17;;;22.33;;
10811;SDS011;5458;51.496;7.334;2023-02-11T01:07:25;31.38;;;21.27;;
10811;SDS011;5458;51.496;7.334;2023-02-11T01:09:52;31.27;;;21.95;;
10811;SDS011;5458;51.496;7.334;2023-02-11T01:12:18;34.65;;;23.92;;
10811;SDS011;5458;51.496;7.334;2023-02-11T01:14:43;35.38;;;24.60;;
10811;SDS011;5458;51.496;7.334;2023-02-11T01:17:09;34.58;;;21.83;;
10811;SDS011;5458;51.496;7.334;2023-02-11T01:19:36;31.27;;;22.75;;
10811;SDS011;5458;51.496;7.334;2023-02-11T01:22:02;33.85;;;23.55;;
10811;SDS011;5458;51.496;7.334;2023-02-11T01:24:28;33.28;;;22.77;;
10811;SDS011;5458;51.496;7.334;2023-02-11T01:26:54;32.65;;;22.08;;
10811;SDS011;5458;51.496;7.334;2023-02-11T01:29:20;34.05;;;23.05;;
10811;SDS011;5458;51.496;7.334;2023-02-11T01:31:46;30.50;;;21.67;;
10811;SDS011;5458;51.496;7.334;2023-02-11T01:34:12;31.45;;;21.48;;
10811;SDS011;5458;51.496;7.334;2023-02-11T01:36:38;35.55;;;22.83;;
10811;SDS011;5458;51.496;7.334;2023-02-11T01:39:04;35.25;;;22.58;;
10811;SDS011;5458;51.496;7.334;2023-02-11T01:41:30;30.15;;;20.38;;
10811;SDS011;5458;51.496;7.334;2023-02-11T01:43:56;30.75;;;21.25;;
10811;SDS011;5458;51.496;7.334;2023-02-11T01:51:41;29.83;;;21.83;;
10811;SDS011;5458;51.496;7.334;2023-02-11T01:54:30;31.77;;;21.00;;
10811;SDS011;5458;51.496;7.334;2023-02-11T01:57:18;34.30;;;21.23;;
10811;SDS011;5458;51.496;7.334;2023-02-11T02:05:32;27.70;;;20.75;;
10811;SDS011;5458;51.496;7.334;2023-02-11T02:08:13;24.55;;;19.08;;
10811;SDS011;5458;51.496;7.334;2023-02-11T02:10:47;34.35;;;22.33;;
10811;SDS011;5458;51.496;7.334;2023-02-11T02:13:18;32.38;;;20.35;;
10811;SDS011;5458;51.496;7.334;2023-02-11T02:15:57;27.55;;;19.63;;
10811;SDS011;5458;51.496;7.334;2023-02-11T02:43:21;28.98;;;20.42;;
10811;SDS011;5458;51.496;7.334;2023-02-11T02:45:50;27.88;;;21.02;;
10811;SDS011;5458;51.496;7.334;2023-02-11T02:48:50;34.10;;;22.15;;
10811;SDS011;5458;51.496;7.334;2023-02-11T02:51:14;30.90;;;21.65;;
10811;SDS011;5458;51.496;7.334;2023-02-11T02:56:37;29.95;;;20.45;;
10811;SDS011;5458;51.496;7.334;2023-02-11T03:02:17;36.30;;;22.63;;
10811;SDS011;5458;51.496;7.334;2023-02-11T03:10:12;35.63;;;22.17;;
10811;SDS011;5458;51.496;7.334;2023-02-11T03:12:49;32.72;;;21.98;;
10811;SDS011;5458;51.496;7.334;2023-02-11T03:15:16;33.47;;;23.83;;
10811;SDS011;5458;51.496;7.334;2023-02-11T03:17:46;32.95;;;23.05;;
10811;SDS011;5458;51.496;7.334;2023-02-11T03:20:14;32.10;;;22.38;;
10811;SDS011;5458;51.496;7.334;2023-02-11T03:22:45;33.60;;;23.73;;
10811;SDS011;5458;51.496;7.334;2023-02-11T03:25:16;35.35;;;22.13;;
10811;SDS011;5458;51.496;7.334;2023-02-11T03:27:44;32.28;;;22.52;;
10811;SDS011;5458;51.496;7.334;2023-02-11T03:30:19;35.13;;;20.90;;
10811;SDS011;5458;51.496;7.334;2023-02-11T03:32:51;35.03;;;21.38;;
10811;SDS011;5458;51.496;7.334;2023-02-11T03:37:59;38.05;;;23.35;;
10811;SDS011;5458;51.496;7.334;2023-02-11T03:40:36;31.67;;;21.63;;
10811;SDS011;5458;51.496;7.334;2023-02-11T03:43:47;34.63;;;20.85;;
10811;SDS011;5458;51.496;7.334;2023-02-11T03:45:55;32.03;;;22.00;;
10811;SDS011;5458;51.496;7.334;2023-02-11T03:48:28;30.52;;;21.55;;
10811;SDS011;5458;51.496;7.334;2023-02-11T03:50:57;30.77;;;21.70;;
10811;SDS011;5458;51.496;7.334;2023-02-11T03:53:25;29.83;;;21.85;;
10811;SDS011;5458;51.496;7.334;2023-02-11T03:55:51;33.85;;;22.63;;
10811;SDS011;5458;51.496;7.334;2023-02-11T03:58:20;35.28;;;22.20;;
10811;SDS011;5458;51.496;7.334;2023-02-11T04:00:47;35.22;;;22.88;;
10811;SDS011;5458;51.496;7.334;2023-02-11T04:03:12;37.60;;;22.92;;
10811;SDS011;5458;51.496;7.334;2023-02-11T04:05:38;38.58;;;22.95;;
10811;SDS011;5458;51.496;7.334;2023-02-11T04:08:07;36.25;;;23.52;;
10811;SDS011;5458;51.496;7.334;2023-02-11T04:10:33;40.42;;;24.52;;
10811;SDS011;5458;51.496;7.334;2023-02-11T04:12:59;31.55;;;21.63;;
10811;SDS011;5458;51.496;7.334;2023-02-11T04:15:25;33.30;;;23.45;;
10811;SDS011;5458;51.496;7.334;2023-02-11T04:17:50;35.20;;;22.40;;
10811;SDS011;5458;51.496;7.334;2023-02-11T04:20:16;37.45;;;23.65;;
10811;SDS011;5458;51.496;7.334;2023-02-11T04:22:42;34.83;;;22.52;;
10811;SDS011;5458;51.496;7.334;2023-02-11T04:25:08;35.65;;;23.38;;
10811;SDS011;5458;51.496;7.334;2023-02-11T04:27:34;37.03;;;22.55;;
10811;SDS011;5458;51.496;7.334;2023-02-11T04:30:00;35.90;;;23.52;;
10811;SDS011;5458;51.496;7.334;2023-02-11T04:32:25;37.67;;;24.02;;
10811;SDS011;5458;51.496;7.334;2023-02-11T04:34:51;31.38;;;21.92;;
10811;SDS011;5458;51.496;7.334;2023-02-11T04:37:18;35.95;;;24.58;;
10811;SDS011;5458;51.496;7.334;2023-02-11T04:39:43;33.30;;;22.25;;
10811;SDS011;5458;51.496;7.334;2023-02-11T04:42:09;34.88;;;24.75;;
10811;SDS011;5458;51.496;7.334;2023-02-11T04:44:35;40.80;;;26.05;;
10811;SDS011;5458;51.496;7.334;2023-02-11T04:47:00;34.22;;;24.50;;
10811;SDS011;5458;51.496;7.334;2023-02-11T04:49:26;39.15;;;25.25;;
10811;SDS011;5458;51.496;7.334;2023-02-11T04:51:52;44.15;;;24.80;;
10811;SDS011;5458;51.496;7.334;2023-02-11T04:54:17;39.70;;;23.67;;
10811;SDS011;5458;51.496;7.334;2023-02-11T04:56:44;33.60;;;23.75;;
10811;SDS011;5458;51.496;7.334;2023-02-11T04:59:09;36.58;;;24.50;;
10811;SDS011;5458;51.496;7.334;2023-02-11T05:01:37;37.80;;;24.92;;
10811;SDS011;5458;51.496;7.334;2023-02-11T05:04:03;33.83;;;24.88;;
10811;SDS011;5458;51.496;7.334;2023-02-11T05:06:28;45.47;;;25.48;;
10811;SDS011;5458;51.496;7.334;2023-02-11T05:08:54;36.72;;;24.67;;
10811;SDS011;5458;51.496;7.334;2023-02-11T05:11:21;39.63;;;25.20;;
10811;SDS011;5458;51.496;7.334;2023-02-11T05:13:48;37.95;;;24.63;;
10811;SDS011;5458;51.496;7.334;2023-02-11T05:16:14;35.25;;;25.55;;
10811;SDS011;5458;51.496;7.334;2023-02-11T05:18:40;36.78;;;24.27;;
10811;SDS011;5458;51.496;7.334;2023-02-11T05:21:11;35.20;;;23.73;;
10811;SDS011;5458;51.496;7.334;2023-02-11T05:23:40;40.80;;;25.52;;
10811;SDS011;5458;51.496;7.334;2023-02-11T05:26:06;36.00;;;24.08;;
10811;SDS011;5458;51.496;7.334;2023-02-11T05:28:33;34.50;;;23.80;;
10811;SDS011;5458;51.496;7.334;2023-02-11T05:30:59;38.92;;;26.13;;
10811;SDS011;5458;51.496;7.334;2023-02-11T05:33:25;36.63;;;24.77;;
10811;SDS011;5458;51.496;7.334;2023-02-11T05:35:51;37.55;;;24.98;;
10811;SDS011;5458;51.496;7.334;2023-02-11T05:38:21;40.05;;;25.20;;
10811;SDS011;5458;51.496;7.334;2023-02-11T05:40:47;40.40;;;26.73;;
10811;SDS011;5458;51.496;7.334;2023-02-11T05:43:13;41.85;;;25.67;;
10811;SDS011;5458;51.496;7.334;2023-02-11T05:45:38;37.15;;;24.55;;
10811;SDS011;5458;51.496;7.334;2023-02-11T05:48:04;41.55;;;24.42;;
10811;SDS011;5458;51.496;7.334;2023-02-11T05:50:29;36.13;;;25.33;;
10811;SDS011;5458;51.496;7.334;2023-02-11T05:52:55;40.30;;;25.92;;
10811;SDS011;5458;51.496;7.334;2023-02-11T05:55:21;42.65;;;26.75;;
10811;SDS011;5458;51.496;7.334;2023-02-11T05:57:46;42.60;;;24.85;;
10811;SDS011;5458;51.496;7.334;2023-02-11T06:00:12;38.63;;;26.00;;
10811;SDS011;5458;51.496;7.334;2023-02-11T06:02:39;40.28;;;25.60;;
10811;SDS011;5458;51.496;7.334;2023-02-11T06:05:04;40.38;;;26.75;;
10811;SDS011;5458;51.496;7.334;2023-02-11T06:07:30;43.40;;;28.35;;
10811;SDS011;5458;51.496;7.334;2023-02-11T06:09:56;38.90;;;27.15;;
10811;SDS011;5458;51.496;7.334;2023-02-11T06:12:22;45.33;;;28.00;;
10811;SDS011;5458;51.496;7.334;2023-02-11T06:14:47;50.33;;;30.45;;
10811;SDS011;5458;51.496;7.334;2023-02-11T06:17:13;42.90;;;29.10;;
10811;SDS011;5458;51.496;7.334;2023-02-11T06:19:39;42.88;;;26.48;;
10811;SDS011;5458;51.496;7.334;2023-02-11T06:22:04;44.72;;;27.77;;
10811;SDS011;5458;51.496;7.334;2023-02-11T06:24:30;45.65;;;28.42;;
10811;SDS011;5458;51.496;7.334;2023-02-11T06:26:56;47.58;;;28.70;;
10811;SDS011;5458;51.496;7.334;2023-02-11T06:29:21;45.92;;;27.80;;
10811;SDS011;5458;51.496;7.334;2023-02-11T06:31:47;43.75;;;28.67;;
10811;SDS011;5458;51.496;7.334;2023-02-11T06:34:13;45.35;;;28.42;;
10811;SDS011;5458;51.496;7.334;2023-02-11T06:36:38;51.42;;;30.00;;
10811;SDS011;5458;51.496;7.334;2023-02-11T06:39:05;45.50;;;29.10;;
10811;SDS011;5458;51.496;7.334;2023-02-11T06:41:31;42.65;;;28.25;;
10811;SDS011;5458;51.496;7.334;2023-02-11T06:43:57;44.38;;;28.88;;
10811;SDS011;5458;51.496;7.334;2023-02-11T06:46:22;45.90;;;29.23;;
10811;SDS011;5458;51.496;7.334;2023-02-11T06:48:48;49.40;;;29.77;;
10811;SDS011;5458;51.496;7.334;2023-02-11T06:51:14;51.78;;;31.05;;
10811;SDS011;5458;51.496;7.334;2023-02-11T06:53:41;51.92;;;30.98;;
10811;SDS011;5458;51.496;7.334;2023-02-11T06:56:11;48.08;;;30.08;;
10811;SDS011;5458;51.496;7.334;2023-02-11T06:58:45;52.80;;;29.25;;
10811;SDS011;5458;51.496;7.334;2023-02-11T07:01:13;46.05;;;29.40;;
10811;SDS011;5458;51.496;7.334;2023-02-11T07:03:40;49.55;;;29.02;;
10811;SDS011;5458;51.496;7.334;2023-02-11T07:06:09;46.90;;;29.45;;
10811;SDS011;5458;51.496;7.334;2023-02-11T07:08:37;55.30;;;32.03;;
10811;SDS011;5458;51.496;7.334;2023-02-11T07:11:08;47.90;;;29.58;;
10811;SDS011;5458;51.496;7.334;2023-02-11T07:13:39;51.60;;;31.73;;
10811;SDS011;5458;51.496;7.334;2023-02-11T07:16:05;49.10;;;28.30;;
10811;SDS011;5458;51.496;7.334;2023-02-11T07:18:32;51.60;;;29.92;;
10811;SDS011;5458;51.496;7.334;2023-02-11T07:20:58;57.80;;;31.65;;
10811;SDS011;5458;51.496;7.334;2023-02-11T07:23:24;58.95;;;30.33;;
10811;SDS011;5458;51.496;7.334;2023-02-11T07:25:49;49.42;;;30.60;;
10811;SDS011;5458;51.496;7.334;2023-02-11T07:28:15;55.85;;;32.65;;
10811;SDS011;5458;51.496;7.334;2023-02-11T07:30:41;60.85;;;31.85;;
10811;SDS011;5458;51.496;7.334;2023-02-11T07:33:06;57.38;;;31.70;;
10811;SDS011;5458;51.496;7.334;2023-02-11T07:35:32;63.28;;;32.42;;
10811;SDS011;5458;51.496;7.334;2023-02-11T07:37:57;58.50;;;32.17;;
10811;SDS011;5458;51.496;7.334;2023-02-11T07:40:23;59.35;;;33.70;;
10811;SDS011;5458;51.496;7.334;2023-02-11T07:42:49;60.88;;;31.10;;
10811;SDS011;5458;51.496;7.334;2023-02-11T07:45:14;57.40;;;34.38;;
10811;SDS011;5458;51.496;7.334;2023-02-11T07:47:40;61.75;;;33.20;;
10811;SDS011;5458;51.496;7.334;2023-02-11T07:50:07;56.65;;;31.88;;
10811;SDS011;5458;51.496;7.334;2023-02-11T07:52:33;60.65;;;33.75;;
10811;SDS011;5458;51.496;7.334;2023-02-11T07:54:59;63.20;;;34.47;;
10811;SDS011;5458;51.496;7.334;2023-02-11T07:57:25;56.30;;;32.15;;
10811;SDS011;5458;51.496;7.334;2023-02-11T07:59:51;63.78;;;33.05;;
10811;SDS011;5458;51.496;7.334;2023-02-11T08:02:17;60.13;;;32.70;;
10811;SDS011;5458;51.496;7.334;2023-02-11T08:04:44;69.38;;;34.45;;
10811;SDS011;5458;51.496;7.334;2023-02-11T08:07:13;57.35;;;31.90;;
10811;SDS011;5458;51.496;7.334;2023-02-11T08:09:40;63.50;;;33.92;;
10811;SDS011;5458;51.496;7.334;2023-02-11T08:12:06;64.68;;;32.55;;
10811;SDS011;5458;51.496;7.334;2023-02-11T08:14:31;66.28;;;34.78;;
10811;SDS011;5458;51.496;7.334;2023-02-11T08:16:57;69.85;;;34.13;;
10811;SDS011;5458;51.496;7.334;2023-02-11T08:19:23;73.20;;;35.30;;
10811;SDS011;5458;51.496;7.334;2023-02-11T08:21:48;70.47;;;35.28;;
10811;SDS011;5458;51.496;7.334;2023-02-11T08:24:14;64.65;;;34.20;;
10811;SDS011;5458;51.496;7.334;2023-02-11T08:26:41;66.82;;;33.70;;
10811;SDS011;5458;51.496;7.334;2023-02-11T08:29:08;64.45;;;34.90;;
10811;SDS011;5458;51.496;7.334;2023-02-11T08:31:37;63.75;;;34.75;;
10811;SDS011;5458;51.496;7.334;2023-02-11T08:34:05;67.25;;;33.63;;
10811;SDS011;5458;51.496;7.334;2023-02-11T08:36:32;64.72;;;35.45;;
10811;SDS011;5458;51.496;7.334;2023-02-11T08:39:00;66.22;;;35.05;;
10811;SDS011;5458;51.496;7.334;2023-02-11T08:41:29;76.78;;;36.30;;
10811;SDS011;5458;51.496;7.334;2023-02-11T08:43:56;66.25;;;34.30;;
10811;SDS011;5458;51.496;7.334;2023-02-11T08:46:22;74.05;;;35.65;;
10811;SDS011;5458;51.496;7.334;2023-02-11T08:48:48;67.47;;;35.95;;
10811;SDS011;5458;51.496;7.334;2023-02-11T08:51:15;66.97;;;35.08;;
10811;SDS011;5458;51.496;7.334;2023-02-11T08:53:47;62.53;;;35.55;;
10811;SDS011;5458;51.496;7.334;2023-02-11T08:56:13;70.25;;;34.35;;
10811;SDS011;5458;51.496;7.334;2023-02-11T08:58:40;65.50;;;35.95;;
10811;SDS011;5458;51.496;7.334;2023-02-11T09:01:14;67.93;;;34.72;;
10811;SDS011;5458;51.496;7.334;2023-02-11T09:03:44;68.45;;;34.63;;
10811;SDS011;5458;51.496;7.334;2023-02-11T09:06:11;71.45;;;37.00;;
10811;SDS011;5458;51.496;7.334;2023-02-11T09:08:38;72.97;;;36.65;;
10811;SDS011;5458;51.496;7.334;2023-02-11T09:11:06;74.43;;;37.40;;
10811;SDS011;5458;51.496;7.334;2023-02-11T09:13:33;80.22;;;36.63;;
10811;SDS011;5458;51.496;7.334;2023-02-11T09:15:59;72.47;;;35.97;;
10811;SDS011;5458;51.496;7.334;2023-02-11T09:18:26;67.63;;;36.63;;
10811;SDS011;5458;51.496;7.334;2023-02-11T09:20:53;70.82;;;35.47;;
10811;SDS011;5458;51.496;7.334;2023-02-11T09:23:26;65.68;;;35.05;;
10811;SDS011;5458;51.496;7.334;2023-02-11T09:25:51;71.18;;;37.97;;
10811;SDS011;5458;51.496;7.334;2023-02-11T09:28:17;70.53;;;37.45;;
10811;SDS011;5458;51.496;7.334;2023-02-11T09:30:43;78.47;;;36.58;;
10811;SDS011;5458;51.496;7.334;2023-02-11T09:33:08;77.07;;;37.65;;
10811;SDS011;5458;51.496;7.334;2023-02-11T09:35:34;65.85;;;38.63;;
10811;SDS011;5458;51.496;7.334;2023-02-11T09:38:00;73.28;;;35.92;;
10811;SDS011;5458;51.496;7.334;2023-02-11T09:40:25;70.65;;;38.25;;
10811;SDS011;5458;51.496;7.334;2023-02-11T09:45:46;71.95;;;37.03;;
10811;SDS011;5458;51.496;7.334;2023-02-11T09:50:56;75.45;;;35.55;;
10811;SDS011;5458;51.496;7.334;2023-02-11T09:53:28;65.68;;;34.97;;
10811;SDS011;5458;51.496;7.334;2023-02-11T09:55:57;75.03;;;39.22;;
10811;SDS011;5458;51.496;7.334;2023-02-11T09:58:25;70.68;;;36.97;;
10811;SDS011;5458;51.496;7.334;2023-02-11T10:07:01;70.55;;;36.67;;
10811;SDS011;5458;51.496;7.334;2023-02-11T10:12:34;65.97;;;35.00;;
10811;SDS011;5458;51.496;7.334;2023-02-11T10:15:05;71.38;;;37.22;;
10811;SDS011;5458;51.496;7.334;2023-02-11T10:23:24;73.05;;;38.03;;
10811;SDS011;5458;51.496;7.334;2023-02-11T10:25:53;70.53;;;38.67;;
10811;SDS011;5458;51.496;7.334;2023-02-11T10:36:11;75.32;;;37.63;;
10811;SDS011;5458;51.496;7.334;2023-02-11T10:38:38;75.85;;;38.13;;
10811;SDS011;5458;51.496;7.334;2023-02-11T10:41:05;75.13;;;38.97;;
10811;SDS011;5458;51.496;7.334;2023-02-11T10:43:31;68.03;;;36.83;;
10811;SDS011;5458;51.496;7.334;2023-02-11T10:45:58;76.15;;;35.80;;
10811;SDS011;5458;51.496;7.334;2023-02-11T10:53:48;75.20;;;36.10;;
10811;SDS011;5458;51.496;7.334;2023-02-11T10:56:45;68.07;;;35.03;;
10811;SDS011;5458;51.496;7.334;2023-02-11T10:59:33;74.53;;;37.33;;
10811;SDS011;5458;51.496;7.334;2023-02-11T11:02:04;77.05;;;38.50;;
10811;SDS011;5458;51.496;7.334;2023-02-11T11:07:50;69.75;;;36.85;;
10811;SDS011;5458;51.496;7.334;2023-02-11T11:10:43;69.57;;;37.55;;
10811;SDS011;5458;51.496;7.334;2023-02-11T11:18:33;71.50;;;36.28;;
10811;SDS011;5458;51.496;7.334;2023-02-11T11:21:03;70.10;;;37.20;;
10811;SDS011;5458;51.496;7.334;2023-02-11T11:23:31;64.07;;;34.80;;
10811;SDS011;5458;51.496;7.334;2023-02-11T11:26:02;66.57;;;35.92;;
10811;SDS011;5458;51.496;7.334;2023-02-11T11:28:28;71.78;;;35.92;;
10811;SDS011;5458;51.496;7.334;2023-02-11T11:31:00;73.95;;;38.92;;
10811;SDS011;5458;51.496;7.334;2023-02-11T11:33:27;75.53;;;37.38;;
10811;SDS011;5458;51.496;7.334;2023-02-11T11:35:59;74.18;;;36.75;;
10811;SDS011;5458;51.496;7.334;2023-02-11T11:38:28;72.13;;;38.70;;
10811;SDS011;5458;51.496;7.334;2023-02-11T11:43:39;69.97;;;36.80;;
10811;SDS011;5458;51.496;7.334;2023-02-11T11:46:25;69.45;;;38.13;;
10811;SDS011;5458;51.496;7.334;2023-02-11T11:48:55;76.32;;;41.28;;
10811;SDS011;5458;51.496;7.334;2023-02-11T11:51:31;64.90;;;37.67;;
10811;SDS011;5458;51.496;7.334;2023-02-11T11:53:59;70.63;;;37.45;;
10811;SDS011;5458;51.496;7.334;2023-02-11T11:56:31;73.15;;;40.50;;
10811;SDS011;5458;51.496;7.334;2023-02-11T11:59:00;74.57;;;39.53;;
10811;SDS011;5458;51.496;7.334;2023-02-11T12:23:31;76.68;;;42.75;;
10811;SDS011;5458;51.496;7.334;2023-02-11T12:36:43;84.43;;;44.80;;
10811;SDS011;5458;51.496;7.334;2023-02-11T12:41:59;78.30;;;41.97;;
10811;SDS011;5458;51.496;7.334;2023-02-11T12:45:35;73.90;;;41.17;;
10811;SDS011;5458;51.496;7.334;2023-02-11T12:48:35;77.55;;;42.42;;
10811;SDS011;5458;51.496;7.334;2023-02-11T13:01:58;84.75;;;45.72;;
10811;SDS011;5458;51.496;7.334;2023-02-11T13:04:32;87.65;;;45.75;;
10811;SDS011;5458;51.496;7.334;2023-02-11T13:07:04;91.60;;;45.88;;
10811;SDS011;5458;51.496;7.334;2023-02-11T13:09:40;89.28;;;46.17;;
10811;SDS011;5458;51.496;7.334;2023-02-11T13:12:11;92.65;;;46.40;;
10811;SDS011;5458;51.496;7.334;2023-02-11T13:14:58;83.93;;;44.75;;
10811;SDS011;5458;51.496;7.334;2023-02-11T13:17:36;92.72;;;47.90;;
10811;SDS011;5458;51.496;7.334;2023-02-11T13:23:10;81.22;;;46.28;;
10811;SDS011;5458;51.496;7.334;2023-02-11T13:25:49;88.22;;;46.85;;
10811;SDS011;5458;51.496;7.334;2023-02-11T13:28:39;92.72;;;45.38;;
10811;SDS011;5458;51.496;7.334;2023-02-11T13:31:12;91.40;;;48.65;;
10811;SDS011;5458;51.496;7.334;2023-02-11T13:33:40;102.35;;;48.83;;
10811;SDS011;5458;51.496;7.334;2023-02-11T13:38:34;91.32;;;48.15;;
10811;SDS011;5458;51.496;7.334;2023-02-11T13:41:05;91.80;;;48.15;;
10811;SDS011;5458;51.496;7.334;2023-02-11T13:43:40;91.28;;;45.85;;
10811;SDS011;5458;51.496;7.334;2023-02-11T13:46:09;99.35;;;46.78;;
10811;SDS011;5458;51.496;7.334;2023-02-11T13:48:37;89.85;;;48.15;;
10811;SDS011;5458;51.496;7.334;2023-02-11T13:51:10;79.80;;;46.17;;
10811;SDS011;5458;51.496;7.334;2023-02-11T13:56:11;88.07;;;46.53;;
10811;SDS011;5458;51.496;7.334;2023-02-11T13:58:58;88.40;;;44.22;;
10811;SDS011;5458;51.496;7.334;2023-02-11T14:04:32;81.18;;;44.72;;
10811;SDS011;5458;51.496;7.334;2023-02-11T14:07:33;85.93;;;45.33;;
10811;SDS011;5458;51.496;7.334;2023-02-11T14:15:46;80.25;;;42.58;;
10811;SDS011;5458;51.496;7.334;2023-02-11T14:21:14;83.28;;;43.45;;
10811;SDS011;5458;51.496;7.334;2023-02-11T14:23:44;75.30;;;40.70;;
10811;SDS011;5458;51.496;7.334;2023-02-11T14:28:50;73.45;;;41.88;;
10811;SDS011;5458;51.496;7.334;2023-02-11T14:31:34;73.28;;;41.78;;
10811;SDS011;5458;51.496;7.334;2023-02-11T14:37:06;66.03;;;39.53;;
10811;SDS011;5458;51.496;7.334;2023-02-11T14:42:25;69.53;;;41.97;;
10811;SDS011;5458;51.496;7.334;2023-02-11T14:44:56;75.20;;;41.75;;
10811;SDS011;5458;51.496;7.334;2023-02-11T14:47:35;74.10;;;40.60;;
10811;SDS011;5458;51.496;7.334;2023-02-11T14:50:10;63.13;;;39.33;;
10811;SDS011;5458;51.496;7.334;2023-02-11T14:52:41;63.95;;;38.67;;
10811;SDS011;5458;51.496;7.334;2023-02-11T14:57:36;67.38;;;38.47;;
10811;SDS011;5458;51.496;7.334;2023-02-11T15:00:04;67.55;;;37.42;;
10811;SDS011;5458;51.496;7.334;2023-02-11T15:02:41;60.38;;;37.53;;
10811;SDS011;5458;51.496;7.334;2023-02-11T15:07:47;62.90;;;35.35;;
10811;SDS011;5458;51.496;7.334;2023-02-11T15:10:40;57.83;;;34.90;;
10811;SDS011;5458;51.496;7.334;2023-02-11T15:13:05;53.63;;;32.92;;
10811;SDS011;5458;51.496;7.334;2023-02-11T15:15:32;55.60;;;32.83;;
10811;SDS011;5458;51.496;7.334;2023-02-11T15:18:02;54.45;;;33.25;;
10811;SDS011;5458;51.496;7.334;2023-02-11T15:20:30;57.28;;;34.75;;
10811;SDS011;5458;51.496;7.334;2023-02-11T15:22:58;54.50;;;33.25;;
10811;SDS011;5458;51.496;7.334;2023-02-11T15:25:31;55.55;;;32.72;;
10811;SDS011;5458;51.496;7.334;2023-02-11T15:27:57;53.63;;;31.88;;
10811;SDS011;5458;51.496;7.334;2023-02-11T15:30:31;50.45;;;32.33;;
10811;SDS011;5458;51.496;7.334;2023-02-11T15:33:01;50.90;;;30.90;;
10811;SDS011;5458;51.496;7.334;2023-02-11T15:35:32;55.65;;;33.25;;
10811;SDS011;5458;51.496;7.334;2023-02-11T15:38:03;53.58;;;33.10;;
10811;SDS011;5458;51.496;7.334;2023-02-11T15:40:30;55.47;;;32.95;;
10811;SDS011;5458;51.496;7.334;2023-02-11T15:43:04;55.35;;;34.08;;
10811;SDS011;5458;51.496;7.334;2023-02-11T15:48:10;55.10;;;32.72;;
10811;SDS011;5458;51.496;7.334;2023-02-11T15:50:39;60.42;;;34.88;;
10811;SDS011;5458;51.496;7.334;2023-02-11T15:53:26;60.47;;;35.88;;
10811;SDS011;5458;51.496;7.334;2023-02-11T15:56:02;58.42;;;35.65;;
10811;SDS011;5458;51.496;7.334;2023-02-11T15:58:38;62.42;;;35.25;;
10811;SDS011;5458;51.496;7.334;2023-02-11T16:01:07;63.55;;;35.55;;
10811;SDS011;5458;51.496;7.334;2023-02-11T16:03:33;53.65;;;34.88;;
10811;SDS011;5458;51.496;7.334;2023-02-11T16:06:19;63.17;;;35.40;;
10811;SDS011;5458;51.496;7.334;2023-02-11T16:11:24;56.33;;;32.60;;
10811;SDS011;5458;51.496;7.334;2023-02-11T16:13:50;53.40;;;33.35;;
10811;SDS011;5458;51.496;7.334;2023-02-11T16:16:23;51.92;;;33.83;;
10811;SDS011;5458;51.496;7.334;2023-02-11T16:18:58;60.15;;;33.00;;
10811;SDS011;5458;51.496;7.334;2023-02-11T16:21:30;51.35;;;31.40;;
10811;SDS011;5458;51.496;7.334;2023-02-11T16:24:03;58.42;;;33.72;;
10811;SDS011;5458;51.496;7.334;2023-02-11T16:26:38;53.80;;;32.83;;
10811;SDS011;5458;51.496;7.334;2023-02-11T16:29:18;55.60;;;31.02;;
10811;SDS011;5458;51.496;7.334;2023-02-11T16:31:49;60.45;;;33.30;;
10811;SDS011;5458;51.496;7.334;2023-02-11T16:34:17;53.45;;;32.33;;
10811;SDS011;5458;51.496;7.334;2023-02-11T16:36:44;58.13;;;32.75;;
10811;SDS011;5458;51.496;7.334;2023-02-11T16:39:10;57.72;;;33.45;;
10811;SDS011;5458;51.496;7.334;2023-02-11T16:41:36;60.28;;;32.80;;
10811;SDS011;5458;51.496;7.334;2023-02-11T16:44:02;57.40;;;33.58;;
10811;SDS011;5458;51.496;7.334;2023-02-11T16:46:28;53.90;;;31.13;;
10811;SDS011;5458;51.496;7.334;2023-02-11T16:48:56;58.92;;;33.45;;
10811;SDS011;5458;51.496;7.334;2023-02-11T16:51:22;57.03;;;34.80;;
10811;SDS011;5458;51.496;7.334;2023-02-11T16:53:48;51.17;;;31.27;;
10811;SDS011;5458;51.496;7.334;2023-02-11T16:56:15;55.78;;;33.58;;
10811;SDS011;5458;51.496;7.334;2023-02-11T16:58:42;51.25;;;32.75;;
10811;SDS011;5458;51.496;7.334;2023-02-11T17:01:09;54.60;;;33.53;;
10811;SDS011;5458;51.496;7.334;2023-02-11T17:03:36;58.00;;;34.60;;
10811;SDS011;5458;51.496;7.334;2023-02-11T17:06:08;58.22;;;34.22;;
10811;SDS011;5458;51.496;7.334;2023-02-11T17:08:35;59.88;;;33.90;;
10811;SDS011;5458;51.496;7.334;2023-02-11T17:11:02;57.88;;;34.00;;
10811;SDS011;5458;51.496;7.334;2023-02-11T17:13:28;54.92;;;33.53;;
10811;SDS011;5458;51.496;7.334;2023-02-11T17:15:54;61.10;;;33.90;;
10811;SDS011;5458;51.496;7.334;2023-02-11T17:18:19;55.75;;;34.75;;
10811;SDS011;5458;51.496;7.334;2023-02-11T17:20:45;60.50;;;35.63;;
10811;SDS011;5458;51.496;7.334;2023-02-11T17:23:11;55.50;;;34.78;;
10811;SDS011;5458;51.496;7.334;2023-02-11T17:25:37;57.30;;;34.72;;
10811;SDS011;5458;51.496;7.334;2023-02-11T17:28:03;60.70;;;35.03;;
10811;SDS011;5458;51.496;7.334;2023-02-11T17:30:29;57.65;;;34.95;;
10811;SDS011;5458;51.496;7.334;2023-02-11T17:32:55;52.00;;;34.08;;
10811;SDS011;5458;51.496;7.334;2023-02-11T17:35:21;58.92;;;33.70;;
10811;SDS011;5458;51.496;7.334;2023-02-11T17:37:47;62.47;;;34.95;;
10811;SDS011;5458;51.496;7.334;2023-02-11T17:40:12;60.85;;;35.88;;
10811;SDS011;5458;51.496;7.334;2023-02-11T17:42:38;58.63;;;34.22;;
10811;SDS011;5458;51.496;7.334;2023-02-11T17:45:04;58.60;;;34.60;;